CPA6767 ZGGG-VHHX
Flight info
| Callsign | CPA6767 |
|---|---|
| Flight time | 0h 26m |
| Altitude | 18700 |
| Route | SAREX9 SAREX W6 NLG W18 TAMOT |
| Aircraft | B77W/H-SDE1E2E3FGHIJ2J3J4J5M1RWXY/LB1D1 |
Departure
| Time | 2026-05-06 22:24 |
|---|---|
| Airport | Guangzhou Baiyun International Airport (ZGGG) |
Arrival
| Time | 2026-05-06 22:51 |
|---|---|
| Airport | Hong Kong International Airport Kai Tak (VHHX) |
| Time | Latitude | Longitude | Altitude | Speed | Heading |
|---|---|---|---|---|---|
| 2026-05-06 21:55 | 23.38385 | 113.30203 | 59 ft | 0 kts | 197° |
| 2026-05-06 22:12 | 23.38406 | 113.30212 | 50 ft | 4 kts | 221° |
| 2026-05-06 22:12 | 23.38416 | 113.30231 | 50 ft | 4 kts | 292° |
| 2026-05-06 22:12 | 23.38400 | 113.30254 | 50 ft | 4 kts | 315° |
| 2026-05-06 22:12 | 23.38382 | 113.30275 | 50 ft | 4 kts | 298° |
| 2026-05-06 22:13 | 23.38378 | 113.30301 | 50 ft | 4 kts | 267° |
| 2026-05-06 22:13 | 23.38379 | 113.30330 | 50 ft | 4 kts | 267° |
| 2026-05-06 22:13 | 23.38380 | 113.30345 | 50 ft | 0 kts | 267° |
| 2026-05-06 22:17 | 23.38379 | 113.30343 | 50 ft | 3 kts | 262° |
| 2026-05-06 22:17 | 23.38286 | 113.30318 | 52 ft | 23 kts | 182° |
| 2026-05-06 22:17 | 23.38125 | 113.30288 | 55 ft | 24 kts | 197° |
| 2026-05-06 22:17 | 23.37967 | 113.30240 | 51 ft | 24 kts | 193° |
| 2026-05-06 22:18 | 23.37807 | 113.30201 | 52 ft | 24 kts | 188° |
| 2026-05-06 22:18 | 23.37658 | 113.30256 | 50 ft | 24 kts | 135° |
| 2026-05-06 22:18 | 23.37599 | 113.30420 | 53 ft | 24 kts | 101° |
| 2026-05-06 22:18 | 23.37564 | 113.30593 | 53 ft | 24 kts | 105° |
| 2026-05-06 22:19 | 23.37499 | 113.30704 | 54 ft | 0 kts | 164° |
| 2026-05-06 22:19 | 23.37437 | 113.30702 | 53 ft | 26 kts | 188° |
| 2026-05-06 22:19 | 23.37246 | 113.30652 | 57 ft | 29 kts | 194° |
| 2026-05-06 22:19 | 23.37077 | 113.30605 | 52 ft | 18 kts | 193° |
| 2026-05-06 22:20 | 23.37006 | 113.30618 | 54 ft | 0 kts | 133° |
| 2026-05-06 22:20 | 23.37005 | 113.30619 | 54 ft | 1 kts | 132° |
| 2026-05-06 22:21 | 23.36982 | 113.30668 | 55 ft | 17 kts | 107° |
| 2026-05-06 22:21 | 23.37010 | 113.30785 | 54 ft | 16 kts | 27° |
| 2026-05-06 22:21 | 23.37039 | 113.30796 | 54 ft | 0 kts | 17° |
| 2026-05-06 22:23 | 23.37148 | 113.30828 | 55 ft | 51 kts | 14° |
| 2026-05-06 22:24 | 23.37798 | 113.31004 | 54 ft | 138 kts | 14° |
| 2026-05-06 22:24 | 23.38916 | 113.31304 | 355 ft | 177 kts | 14° |
| 2026-05-06 22:24 | 23.40106 | 113.31609 | 1209 ft | 183 kts | 14° |
| 2026-05-06 22:24 | 23.41404 | 113.31937 | 1723 ft | 204 kts | 15° |
| 2026-05-06 22:25 | 23.42894 | 113.32333 | 2018 ft | 237 kts | 15° |
| 2026-05-06 22:25 | 23.44582 | 113.32809 | 2491 ft | 260 kts | 15° |
| 2026-05-06 22:25 | 23.46374 | 113.33318 | 3309 ft | 271 kts | 15° |
| 2026-05-06 22:25 | 23.48224 | 113.33850 | 4178 ft | 277 kts | 16° |
| 2026-05-06 22:26 | 23.49923 | 113.34815 | 4964 ft | 286 kts | 44° |
| 2026-05-06 22:26 | 23.50990 | 113.36619 | 5942 ft | 283 kts | 69° |
| 2026-05-06 22:26 | 23.51711 | 113.38652 | 6742 ft | 292 kts | 69° |
| 2026-05-06 22:26 | 23.52463 | 113.40737 | 7547 ft | 299 kts | 69° |
| 2026-05-06 22:27 | 23.53093 | 113.42903 | 8294 ft | 303 kts | 85° |
| 2026-05-06 22:27 | 23.52850 | 113.45169 | 9103 ft | 303 kts | 115° |
| 2026-05-06 22:27 | 23.51708 | 113.47072 | 9970 ft | 300 kts | 139° |
| 2026-05-06 22:27 | 23.50110 | 113.48562 | 10568 ft | 310 kts | 144° |
| 2026-05-06 22:28 | 23.48346 | 113.50104 | 10804 ft | 341 kts | 144° |
| 2026-05-06 22:28 | 23.46394 | 113.51719 | 10969 ft | 362 kts | 152° |
| 2026-05-06 22:28 | 23.43973 | 113.52603 | 11353 ft | 374 kts | 177° |
| 2026-05-06 22:28 | 23.41378 | 113.52398 | 12140 ft | 374 kts | 194° |
| 2026-05-06 22:29 | 23.38808 | 113.51738 | 12938 ft | 384 kts | 195° |
| 2026-05-06 22:29 | 23.36191 | 113.51051 | 13872 ft | 390 kts | 195° |
| 2026-05-06 22:29 | 23.33534 | 113.50360 | 14759 ft | 394 kts | 195° |
| 2026-05-06 22:29 | 23.30849 | 113.49673 | 15643 ft | 399 kts | 195° |
| 2026-05-06 22:30 | 23.28130 | 113.48988 | 16553 ft | 403 kts | 195° |
| 2026-05-06 22:30 | 23.25389 | 113.48305 | 17468 ft | 406 kts | 195° |
| 2026-05-06 22:30 | 23.22652 | 113.47626 | 17981 ft | 411 kts | 195° |
| 2026-05-06 22:30 | 23.19799 | 113.46918 | 17975 ft | 429 kts | 195° |
| 2026-05-06 22:31 | 23.16925 | 113.46083 | 17951 ft | 428 kts | 202° |
| 2026-05-06 22:31 | 23.14362 | 113.44476 | 17958 ft | 424 kts | 220° |
| 2026-05-06 22:31 | 23.12096 | 113.42373 | 17978 ft | 430 kts | 221° |
| 2026-05-06 22:31 | 23.09770 | 113.40332 | 17972 ft | 430 kts | 220° |
| 2026-05-06 22:32 | 23.07398 | 113.38339 | 17969 ft | 431 kts | 219° |
| 2026-05-06 22:32 | 23.04918 | 113.36579 | 17951 ft | 427 kts | 206° |
| 2026-05-06 22:32 | 23.02051 | 113.35678 | 17962 ft | 433 kts | 189° |
| 2026-05-06 22:32 | 22.99017 | 113.35705 | 17964 ft | 440 kts | 173° |
| 2026-05-06 22:33 | 22.97048 | 113.36236 | 17961 ft | 444 kts | 162° |
| 2026-05-06 22:33 | 22.94309 | 113.37810 | 17956 ft | 447 kts | 146° |
| 2026-05-06 22:33 | 22.92085 | 113.40115 | 17935 ft | 439 kts | 129° |
| 2026-05-06 22:33 | 22.90576 | 113.42966 | 17964 ft | 439 kts | 117° |
| 2026-05-06 22:34 | 22.89069 | 113.45816 | 17947 ft | 433 kts | 131° |
| 2026-05-06 22:34 | 22.86851 | 113.47972 | 17961 ft | 427 kts | 149° |
| 2026-05-06 22:34 | 22.84176 | 113.49318 | 17958 ft | 422 kts | 166° |
| 2026-05-06 22:34 | 22.81338 | 113.49981 | 17964 ft | 416 kts | 172° |
| 2026-05-06 22:35 | 22.78486 | 113.50573 | 17962 ft | 418 kts | 172° |
| 2026-05-06 22:35 | 22.75628 | 113.51177 | 17962 ft | 419 kts | 171° |
| 2026-05-06 22:35 | 22.72760 | 113.51800 | 17958 ft | 420 kts | 171° |
| 2026-05-06 22:35 | 22.69892 | 113.52436 | 17960 ft | 420 kts | 171° |
| 2026-05-06 22:36 | 22.67021 | 113.53081 | 17960 ft | 420 kts | 170° |
| 2026-05-06 22:36 | 22.64159 | 113.53733 | 17958 ft | 420 kts | 170° |
| 2026-05-06 22:36 | 22.61355 | 113.54370 | 17944 ft | 412 kts | 171° |
| 2026-05-06 22:36 | 22.58597 | 113.54995 | 17861 ft | 397 kts | 171° |
| 2026-05-06 22:37 | 22.55954 | 113.55617 | 17731 ft | 379 kts | 166° |
| 2026-05-06 22:37 | 22.53601 | 113.56805 | 17618 ft | 371 kts | 146° |
| 2026-05-06 22:37 | 22.51753 | 113.58696 | 17545 ft | 362 kts | 130° |
| 2026-05-06 22:37 | 22.50401 | 113.60927 | 17435 ft | 346 kts | 122° |
| 2026-05-06 22:38 | 22.49196 | 113.63112 | 17112 ft | 332 kts | 122° |
| 2026-05-06 22:38 | 22.48029 | 113.65233 | 16583 ft | 325 kts | 122° |
| 2026-05-06 22:38 | 22.46875 | 113.67320 | 15982 ft | 322 kts | 122° |
| 2026-05-06 22:38 | 22.45720 | 113.69380 | 15393 ft | 319 kts | 123° |
| 2026-05-06 22:39 | 22.44566 | 113.71417 | 14825 ft | 316 kts | 123° |
| 2026-05-06 22:39 | 22.43420 | 113.73428 | 14274 ft | 313 kts | 123° |
| 2026-05-06 22:39 | 22.42283 | 113.75425 | 13726 ft | 310 kts | 123° |
| 2026-05-06 22:39 | 22.41210 | 113.77304 | 13119 ft | 308 kts | 123° |
| 2026-05-06 22:40 | 22.40088 | 113.79259 | 12499 ft | 302 kts | 123° |
| 2026-05-06 22:40 | 22.38991 | 113.81173 | 11767 ft | 298 kts | 123° |
| 2026-05-06 22:40 | 22.37905 | 113.83073 | 10986 ft | 297 kts | 123° |
| 2026-05-06 22:40 | 22.36837 | 113.84945 | 10287 ft | 294 kts | 123° |
| 2026-05-06 22:41 | 22.35331 | 113.88962 | 8849 ft | 290 kts | 98° |
| 2026-05-06 22:41 | 22.35065 | 113.91102 | 8139 ft | 286 kts | 98° |
| 2026-05-06 22:41 | 22.34794 | 113.93210 | 7485 ft | 281 kts | 98° |
| 2026-05-06 22:42 | 22.34515 | 113.95277 | 6843 ft | 276 kts | 99° |
| 2026-05-06 22:42 | 22.34230 | 113.97311 | 6202 ft | 271 kts | 99° |
| 2026-05-06 22:42 | 22.33942 | 113.99306 | 5625 ft | 267 kts | 99° |
| 2026-05-06 22:42 | 22.33646 | 114.01310 | 5450 ft | 271 kts | 99° |
| 2026-05-06 22:43 | 22.33362 | 114.03302 | 5130 ft | 265 kts | 97° |
| 2026-05-06 22:43 | 22.33280 | 114.05263 | 4540 ft | 259 kts | 88° |
| 2026-05-06 22:43 | 22.33347 | 114.07194 | 3892 ft | 255 kts | 88° |
| 2026-05-06 22:43 | 22.33431 | 114.09093 | 3220 ft | 252 kts | 86° |
| 2026-05-06 22:44 | 22.33554 | 114.10962 | 2612 ft | 246 kts | 80° |
| 2026-05-06 22:44 | 22.34157 | 114.12540 | 2465 ft | 222 kts | 49° |
| 2026-05-06 22:44 | 22.35457 | 114.13327 | 2095 ft | 222 kts | 1° |
| 2026-05-06 22:44 | 22.36887 | 114.12833 | 1702 ft | 223 kts | 318° |
| 2026-05-06 22:45 | 22.37536 | 114.11437 | 1541 ft | 207 kts | 264° |
| 2026-05-06 22:45 | 22.37056 | 114.09998 | 1401 ft | 207 kts | 234° |
| 2026-05-06 22:45 | 22.36249 | 114.08694 | 1617 ft | 214 kts | 229° |
| 2026-05-06 22:45 | 22.35304 | 114.07453 | 1776 ft | 215 kts | 226° |
| 2026-05-06 22:46 | 22.34439 | 114.06120 | 1773 ft | 218 kts | 234° |
| 2026-05-06 22:46 | 22.33680 | 114.04711 | 1776 ft | 215 kts | 235° |
| 2026-05-06 22:46 | 22.32730 | 114.03562 | 1813 ft | 203 kts | 206° |
| 2026-05-06 22:46 | 22.31411 | 114.03133 | 1763 ft | 195 kts | 169° |
| 2026-05-06 22:47 | 22.30196 | 114.03680 | 1762 ft | 195 kts | 131° |
| 2026-05-06 22:47 | 22.29581 | 114.04965 | 1799 ft | 199 kts | 95° |
| 2026-05-06 22:47 | 22.29827 | 114.06454 | 1774 ft | 207 kts | 66° |
| 2026-05-06 22:47 | 22.30467 | 114.07821 | 1754 ft | 200 kts | 61° |
| 2026-05-06 22:48 | 22.31112 | 114.09058 | 2124 ft | 187 kts | 59° |
| 2026-05-06 22:48 | 22.31754 | 114.10287 | 2274 ft | 189 kts | 61° |
| 2026-05-06 22:48 | 22.32353 | 114.11559 | 2091 ft | 191 kts | 65° |
| 2026-05-06 22:48 | 22.32864 | 114.12860 | 1747 ft | 188 kts | 68° |
| 2026-05-06 22:49 | 22.33238 | 114.14172 | 1431 ft | 176 kts | 76° |
| 2026-05-06 22:49 | 22.33372 | 114.15405 | 1142 ft | 151 kts | 85° |
| 2026-05-06 22:49 | 22.33367 | 114.16481 | 917 ft | 142 kts | 86° |
| 2026-05-06 22:49 | 22.33350 | 114.17551 | 732 ft | 145 kts | 91° |
| 2026-05-06 22:50 | 22.33061 | 114.18571 | 420 ft | 147 kts | 118° |
| 2026-05-06 22:50 | 22.32395 | 114.19403 | 113 ft | 141 kts | 128° |
| 2026-05-06 22:50 | 22.31732 | 114.20150 | 43 ft | 127 kts | 134° |
| 2026-05-06 22:50 | 22.31202 | 114.20739 | 41 ft | 87 kts | 134° |
| 2026-05-06 22:51 | 22.30902 | 114.21077 | 40 ft | 49 kts | 131° |
| 2026-05-06 22:51 | 22.30840 | 114.21258 | 39 ft | 17 kts | 57° |
| 2026-05-06 22:51 | 22.30858 | 114.21268 | 40 ft | 3 kts | 360° |
| 2026-05-06 22:51 | 22.30930 | 114.21197 | 40 ft | 26 kts | 313° |
| 2026-05-06 22:52 | 22.31044 | 114.21068 | 40 ft | 27 kts | 315° |
| 2026-05-06 22:52 | 22.31170 | 114.20929 | 40 ft | 27 kts | 314° |
| 2026-05-06 22:52 | 22.31299 | 114.20784 | 40 ft | 27 kts | 314° |
| 2026-05-06 22:52 | 22.31404 | 114.20667 | 40 ft | 17 kts | 314° |
| 2026-05-06 22:53 | 22.31437 | 114.20630 | 40 ft | 6 kts | 314° |
| 2026-05-06 22:53 | 22.31470 | 114.20600 | 40 ft | 6 kts | 332° |
| 2026-05-06 22:53 | 22.31519 | 114.20611 | 42 ft | 10 kts | 36° |
| 2026-05-06 22:53 | 22.31572 | 114.20660 | 46 ft | 10 kts | 43° |
| 2026-05-06 22:54 | 22.31631 | 114.20719 | 42 ft | 14 kts | 40° |
| 2026-05-06 22:54 | 22.31702 | 114.20772 | 40 ft | 8 kts | 39° |
| 2026-05-06 22:54 | 22.31728 | 114.20797 | 40 ft | 0 kts | 43° |
| 2026-05-06 22:58 | 22.31780 | 114.10338 | 40 ft | 172 kts | 61° |
| 2026-05-06 22:59 | 22.33360 | 114.17290 | 795 ft | 144 kts | 88° |
| 2026-05-06 22:59 | 22.33175 | 114.18355 | 516 ft | 146 kts | 111° |
| 2026-05-06 22:59 | 22.32551 | 114.19227 | 145 ft | 144 kts | 129° |
| 2026-05-06 22:59 | 22.31873 | 114.19989 | 44 ft | 134 kts | 128° |
| 2026-05-06 23:00 | 22.31316 | 114.20612 | 39 ft | 98 kts | 134° |